createdAt,value
2018-08-19T00:02:07.682Z,79.20
2018-08-19T00:04:36.519Z,79.20
2018-08-19T00:07:04.671Z,79.40
2018-08-19T00:09:33.306Z,79.40
2018-08-19T00:12:01.728Z,79.30
2018-08-19T00:14:32.597Z,79.50
2018-08-19T00:17:01.570Z,78.70
2018-08-19T00:19:30.635Z,78.80
2018-08-19T00:21:58.571Z,78.80
2018-08-19T00:24:26.469Z,78.90
2018-08-19T00:26:54.281Z,79.30
2018-08-19T00:29:27.363Z,79.20
2018-08-19T00:31:55.666Z,79.10
2018-08-19T00:34:29.834Z,78.80
2018-08-19T00:36:58.020Z,78.80
2018-08-19T00:39:25.877Z,78.80
2018-08-19T00:41:53.977Z,79.20
2018-08-19T00:44:21.794Z,79.40
2018-08-19T00:46:49.502Z,80.00
2018-08-19T00:49:17.446Z,80.30
2018-08-19T00:51:50.805Z,80.70
2018-08-19T00:54:18.645Z,80.80
2018-08-19T00:56:48.188Z,80.70
2018-08-19T00:59:16.062Z,80.90
2018-08-19T01:01:45.099Z,80.60
2018-08-19T01:04:12.910Z,80.70
2018-08-19T01:06:46.690Z,80.70
2018-08-19T01:09:14.581Z,80.60
2018-08-19T01:11:42.882Z,80.70
2018-08-19T01:14:12.255Z,80.90
2018-08-19T01:16:40.313Z,81.30
2018-08-19T01:19:08.559Z,81.20
2018-08-19T01:21:36.420Z,81.30
2018-08-19T01:24:07.475Z,81.20
2018-08-19T01:26:36.868Z,81.50
2018-08-19T01:29:05.843Z,81.60
2018-08-19T01:31:33.888Z,81.50
2018-08-19T01:34:04.789Z,81.40
2018-08-19T01:36:33.113Z,81.20
2018-08-19T01:39:01.098Z,81.50
2018-08-19T01:41:28.926Z,81.50
2018-08-19T01:44:05.771Z,81.90
2018-08-19T01:46:39.044Z,82.40
2018-08-19T01:49:08.689Z,82.50
2018-08-19T01:51:37.569Z,82.60
2018-08-19T01:54:10.022Z,82.50
2018-08-19T01:56:38.314Z,82.60
2018-08-19T01:59:06.703Z,82.40
2018-08-19T02:01:44.494Z,82.40
2018-08-19T02:04:12.385Z,82.20
2018-08-19T02:06:41.250Z,82.30
2018-08-19T02:09:10.785Z,82.30
2018-08-19T02:11:38.848Z,82.50
2018-08-19T02:14:06.754Z,82.60
2018-08-19T02:16:34.813Z,82.60
2018-08-19T02:19:02.825Z,82.60
2018-08-19T02:21:30.704Z,81.90
2018-08-19T02:23:58.593Z,81.80
2018-08-19T02:26:29.380Z,82.00
2018-08-19T02:28:57.446Z,82.10
2018-08-19T02:31:25.330Z,82.10
2018-08-19T02:33:53.425Z,82.20
2018-08-19T02:36:21.318Z,82.40
2018-08-19T02:38:49.381Z,82.80
2018-08-19T02:41:17.269Z,83.00
2018-08-19T02:43:59.822Z,83.00
2018-08-19T02:46:27.790Z,82.90
2018-08-19T02:48:55.624Z,82.90
2018-08-19T02:51:23.560Z,82.80
2018-08-19T02:53:52.048Z,82.70
2018-08-19T02:56:20.306Z,82.40
2018-08-19T02:58:48.617Z,82.50
2018-08-19T03:01:17.414Z,82.70
2018-08-19T03:03:45.811Z,82.60
2018-08-19T03:06:13.661Z,82.60
2018-08-19T03:08:47.474Z,82.70
2018-08-19T03:11:17.920Z,83.50
2018-08-19T03:13:45.842Z,83.50
2018-08-19T03:16:13.661Z,83.50
2018-08-19T03:18:41.601Z,82.40
2018-08-19T03:21:09.634Z,82.30
2018-08-19T03:23:37.666Z,82.40
2018-08-19T03:26:05.768Z,82.40
2018-08-19T03:28:33.802Z,82.50
2018-08-19T03:31:02.592Z,83.00
2018-08-19T03:33:30.711Z,83.30
2018-08-19T03:35:58.706Z,83.50
2018-08-19T03:38:27.522Z,83.30
2018-08-19T03:40:56.223Z,83.30
2018-08-19T03:43:23.978Z,83.40
2018-08-19T03:45:51.913Z,83.20
2018-08-19T03:48:19.673Z,82.70
2018-08-19T03:50:47.677Z,82.60
2018-08-19T03:53:15.541Z,82.70
2018-08-19T03:55:43.333Z,83.30
2018-08-19T03:58:11.477Z,83.00
2018-08-19T04:00:42.821Z,83.50
2018-08-19T04:03:29.052Z,83.50
2018-08-19T04:05:59.774Z,83.60
2018-08-19T04:08:44.833Z,83.60
2018-08-19T04:11:12.716Z,83.90
2018-08-19T04:13:41.125Z,83.90
2018-08-19T04:16:10.254Z,84.40
2018-08-19T04:18:39.724Z,84.50
2018-08-19T04:21:13.909Z,84.40
2018-08-19T04:23:44.237Z,84.70
2018-08-19T04:26:12.077Z,84.40
2018-08-19T04:28:41.383Z,83.80
2018-08-19T04:31:14.872Z,83.70
2018-08-19T04:33:44.901Z,83.70
2018-08-19T04:36:14.554Z,83.60
2018-08-19T04:38:42.494Z,83.50
2018-08-19T04:41:10.901Z,83.50
2018-08-19T04:43:38.710Z,83.50
2018-08-19T04:46:06.600Z,83.00
2018-08-19T04:48:34.851Z,82.70
2018-08-19T04:51:02.971Z,81.20
2018-08-19T04:53:32.549Z,81.00
2018-08-19T04:56:00.442Z,81.50
2018-08-19T04:58:28.484Z,81.60
2018-08-19T05:00:56.541Z,81.80
2018-08-19T05:03:24.448Z,81.80
2018-08-19T05:05:52.222Z,81.40
2018-08-19T05:08:20.257Z,80.80
2018-08-19T05:10:48.142Z,80.20
2018-08-19T05:13:15.972Z,80.00
2018-08-19T05:15:43.751Z,79.90
2018-08-19T05:18:11.652Z,79.40
2018-08-19T05:20:39.694Z,79.40
2018-08-19T05:23:08.040Z,79.30
2018-08-19T05:25:45.960Z,79.20
2018-08-19T05:28:16.373Z,79.60
2018-08-19T05:30:44.638Z,80.30
2018-08-19T05:33:12.433Z,79.60
2018-08-19T05:35:40.334Z,79.70
2018-08-19T05:38:08.380Z,79.50
2018-08-19T05:40:37.621Z,79.50
2018-08-19T05:43:05.714Z,79.10
2018-08-19T05:45:38.425Z,78.80
2018-08-19T05:48:09.459Z,78.30
2018-08-19T05:50:37.353Z,77.90
2018-08-19T05:53:05.566Z,77.50
2018-08-19T05:55:33.895Z,77.50
2018-08-19T05:58:02.094Z,77.60
2018-08-19T06:00:30.428Z,77.60
2018-08-19T06:02:59.610Z,77.70
2018-08-19T06:05:27.941Z,77.90
2018-08-19T06:08:01.318Z,77.80
2018-08-19T06:10:29.206Z,77.20
2018-08-19T06:12:57.530Z,77.10
2018-08-19T06:15:26.253Z,77.00
2018-08-19T06:17:54.150Z,76.80
2018-08-19T06:20:22.051Z,76.90
2018-08-19T06:22:50.010Z,76.80
2018-08-19T06:25:17.741Z,76.60
2018-08-19T06:27:47.264Z,76.30
2018-08-19T06:30:15.933Z,76.40
2018-08-19T06:32:43.791Z,75.90
2018-08-19T06:35:11.709Z,74.40
2018-08-19T06:37:39.718Z,73.50
2018-08-19T06:40:09.328Z,71.70
2018-08-19T06:42:37.249Z,70.80
2018-08-19T06:45:05.866Z,69.20
2018-08-19T06:47:33.937Z,68.40
2018-08-19T06:50:04.654Z,66.80
2018-08-19T06:52:32.538Z,64.60
2018-08-19T06:55:00.358Z,62.60
2018-08-19T06:57:28.724Z,61.80
2018-08-19T06:59:56.859Z,61.60
2018-08-19T07:02:24.655Z,60.00
2018-08-19T07:04:52.504Z,59.00
2018-08-19T07:07:20.730Z,58.70
2018-08-19T07:09:48.585Z,57.80
2018-08-19T07:12:18.273Z,58.00
2018-08-19T07:14:46.612Z,57.70
2018-08-19T07:17:14.748Z,57.20
2018-08-19T07:19:42.787Z,57.20
2018-08-19T07:22:14.505Z,57.20
2018-08-19T07:24:42.256Z,56.30
2018-08-19T07:27:10.516Z,56.30
2018-08-19T07:29:38.620Z,55.60
2018-08-19T07:32:07.570Z,55.50
2018-08-19T07:34:35.535Z,55.10
2018-08-19T07:37:03.680Z,54.00
2018-08-19T07:39:42.785Z,53.50
2018-08-19T07:42:10.876Z,53.10
2018-08-19T07:44:38.966Z,52.90
2018-08-19T07:47:07.110Z,52.80
2018-08-19T07:49:35.306Z,52.80
2018-08-19T07:52:03.532Z,51.60
2018-08-19T07:54:31.459Z,52.00
2018-08-19T07:57:04.183Z,51.80
2018-08-19T07:59:31.960Z,51.40
2018-08-19T08:01:59.816Z,50.80
2018-08-19T08:04:33.199Z,50.10
2018-08-19T08:07:02.040Z,49.50
2018-08-19T08:09:30.053Z,49.30
2018-08-19T08:11:57.938Z,49.30
2018-08-19T08:14:26.051Z,50.20
2018-08-19T08:16:57.418Z,50.40
2018-08-19T08:19:25.273Z,49.80
2018-08-19T08:22:03.898Z,49.70
2018-08-19T08:24:32.805Z,49.10
2018-08-19T08:27:00.909Z,48.80
2018-08-19T08:29:28.952Z,48.60
2018-08-19T08:31:58.842Z,48.30
2018-08-19T08:34:28.476Z,48.10
2018-08-19T08:37:00.714Z,48.20
2018-08-19T08:39:29.240Z,47.80
2018-08-19T08:41:57.935Z,47.20
2018-08-19T08:44:26.403Z,47.00
2018-08-19T08:46:54.388Z,47.40
2018-08-19T08:49:22.675Z,47.00
2018-08-19T08:51:50.634Z,46.30
2018-08-19T08:54:18.627Z,46.40
2018-08-19T08:56:46.586Z,46.50
2018-08-19T08:59:14.512Z,46.70
2018-08-19T09:01:42.500Z,46.40
2018-08-19T09:04:10.516Z,46.60
2018-08-19T09:06:38.445Z,46.70
2018-08-19T09:09:07.577Z,46.30
2018-08-19T09:11:37.092Z,46.60
2018-08-19T09:14:06.284Z,46.30
2018-08-19T09:16:35.568Z,46.20
2018-08-19T09:19:05.181Z,46.30
2018-08-19T09:21:34.950Z,46.10
2018-08-19T09:24:03.728Z,46.00
2018-08-19T09:26:32.302Z,46.20
2018-08-19T09:29:00.440Z,46.90
2018-08-19T09:31:28.310Z,46.10
2018-08-19T09:33:56.113Z,46.00
2018-08-19T09:36:23.920Z,46.10
2018-08-19T09:38:51.899Z,46.10
2018-08-19T09:41:19.738Z,46.20
2018-08-19T09:43:47.643Z,45.30
2018-08-19T09:48:54.573Z,44.70
2018-08-19T09:51:22.288Z,44.40
2018-08-19T09:53:49.963Z,44.70
2018-08-19T09:56:20.673Z,44.50
2018-08-19T09:58:53.966Z,45.30
2018-08-19T10:01:27.313Z,44.60
2018-08-19T10:03:54.893Z,44.60
2018-08-19T10:06:22.435Z,44.50
2018-08-19T10:08:50.058Z,44.30
2018-08-19T10:11:17.823Z,44.10
2018-08-19T10:13:47.921Z,43.80
2018-08-19T10:16:15.640Z,44.00
2018-08-19T10:18:43.300Z,43.90
2018-08-19T10:21:17.471Z,43.80
2018-08-19T10:23:45.035Z,43.70
2018-08-19T10:26:12.644Z,43.70
2018-08-19T10:28:40.267Z,43.90
2018-08-19T10:31:16.516Z,43.60
2018-08-19T10:33:44.150Z,43.80
2018-08-19T10:36:11.711Z,43.40
2018-08-19T10:38:39.520Z,43.10
2018-08-19T10:41:07.614Z,43.00
2018-08-19T10:43:35.642Z,42.40
2018-08-19T10:46:04.420Z,42.30
2018-08-19T10:48:32.553Z,42.40
2018-08-19T10:51:02.940Z,42.70
2018-08-19T10:53:33.813Z,42.20
2018-08-19T10:56:03.431Z,42.60
2018-08-19T10:58:31.235Z,42.40
2018-08-19T11:00:58.927Z,41.50
2018-08-19T11:03:26.597Z,41.30
2018-08-19T11:05:55.425Z,41.40
2018-08-19T11:08:23.180Z,41.10
2018-08-19T11:10:51.445Z,40.70
2018-08-19T11:13:21.108Z,40.50
2018-08-19T11:15:53.114Z,40.30
2018-08-19T11:18:25.026Z,40.30
2018-08-19T11:20:56.655Z,40.70
2018-08-19T11:23:25.891Z,40.70
2018-08-19T11:25:54.628Z,40.80
2018-08-19T11:28:31.431Z,41.20
2018-08-19T11:30:59.520Z,41.20
2018-08-19T11:33:36.824Z,41.40
2018-08-19T11:36:05.727Z,42.10
2018-08-19T11:38:34.986Z,41.40
2018-08-19T11:41:05.161Z,40.30
2018-08-19T11:43:37.899Z,40.30
2018-08-19T11:46:06.883Z,38.10
2018-08-19T11:48:36.275Z,37.90
2018-08-19T11:51:06.034Z,38.30
2018-08-19T11:53:35.100Z,37.50
2018-08-19T11:56:04.623Z,38.00
2018-08-19T11:58:46.007Z,37.50
2018-08-19T12:01:16.322Z,38.00
2018-08-19T12:03:58.004Z,38.60
2018-08-19T12:06:27.038Z,39.40
2018-08-19T12:08:56.174Z,39.90
2018-08-19T12:11:28.317Z,40.30
2018-08-19T12:13:56.188Z,40.60
2018-08-19T12:16:25.238Z,40.50
2018-08-19T12:18:53.424Z,39.50
2018-08-19T12:21:22.239Z,38.70
2018-08-19T12:23:50.805Z,39.00
2018-08-19T12:26:19.154Z,38.00
2018-08-19T12:28:47.134Z,38.00
2018-08-19T12:31:16.187Z,37.70
2018-08-19T12:33:44.465Z,38.30
2018-08-19T12:36:12.495Z,38.20
2018-08-19T12:38:40.425Z,38.30
2018-08-19T12:41:09.083Z,38.50
2018-08-19T12:43:37.971Z,37.50
2018-08-19T12:46:07.078Z,37.70
2018-08-19T12:48:36.470Z,37.00
2018-08-19T12:51:06.640Z,36.80
2018-08-19T12:53:36.308Z,36.60
2018-08-19T12:56:06.219Z,35.30
2018-08-19T12:58:36.184Z,34.70
2018-08-19T13:01:07.325Z,34.70
2018-08-19T13:03:41.607Z,34.80
2018-08-19T13:06:10.201Z,34.50
2018-08-19T13:11:09.638Z,35.20
2018-08-19T13:13:38.208Z,32.90
2018-08-19T13:16:07.016Z,32.20
2018-08-19T13:18:42.364Z,32.10
2018-08-19T13:21:14.445Z,31.40
2018-08-19T13:23:41.934Z,32.20
2018-08-19T13:26:09.568Z,33.60
2018-08-19T13:28:40.357Z,32.50
2018-08-19T13:31:08.204Z,33.00
2018-08-19T13:33:35.889Z,32.60
2018-08-19T13:36:05.281Z,33.00
2018-08-19T13:38:37.551Z,32.10
2018-08-19T13:41:07.266Z,32.10
2018-08-19T13:43:37.139Z,31.70
2018-08-19T13:46:05.775Z,32.10
2018-08-19T13:48:35.247Z,30.90
2018-08-19T13:51:04.853Z,31.00
2018-08-19T13:53:34.238Z,30.70
2018-08-19T13:56:02.597Z,30.40
2018-08-19T13:58:30.996Z,30.80
2018-08-19T14:00:58.479Z,30.60
2018-08-19T14:03:26.054Z,30.70
2018-08-19T14:05:53.902Z,30.00
2018-08-19T14:08:21.522Z,30.60
2018-08-19T14:10:49.078Z,30.50
2018-08-19T14:13:16.627Z,30.70
2018-08-19T14:15:44.741Z,30.80
2018-08-19T14:18:12.661Z,30.60
2018-08-19T14:20:40.752Z,30.20
2018-08-19T14:23:08.928Z,29.40
2018-08-19T14:25:37.291Z,30.40
2018-08-19T14:28:06.203Z,30.40
2018-08-19T14:30:35.479Z,30.60
2018-08-19T14:33:04.914Z,30.10
2018-08-19T14:35:34.740Z,30.40
2018-08-19T14:38:04.531Z,30.10
2018-08-19T14:40:34.366Z,30.10
2018-08-19T14:43:04.145Z,30.00
2018-08-19T14:45:32.768Z,30.70
2018-08-19T14:48:00.862Z,30.00
2018-08-19T14:50:28.933Z,30.20
2018-08-19T14:52:57.370Z,30.10
2018-08-19T14:55:25.530Z,29.80
2018-08-19T14:57:53.548Z,29.60
2018-08-19T15:00:21.760Z,29.70
2018-08-19T15:02:49.823Z,29.90
2018-08-19T15:05:20.040Z,29.90
2018-08-19T15:07:48.650Z,29.90
2018-08-19T15:10:24.636Z,30.00
2018-08-19T15:12:53.353Z,30.00
2018-08-19T15:15:21.386Z,29.80
2018-08-19T15:17:59.775Z,30.00
2018-08-19T15:20:33.330Z,29.70
2018-08-19T15:23:13.340Z,29.70
2018-08-19T15:25:41.429Z,29.60
2018-08-19T15:28:09.397Z,29.30
2018-08-19T15:30:39.500Z,29.00
2018-08-19T15:33:08.134Z,29.60
2018-08-19T15:35:36.376Z,29.60
2018-08-19T15:38:04.845Z,29.30
2018-08-19T15:40:39.290Z,29.10
2018-08-19T15:43:08.589Z,29.00
2018-08-19T15:45:41.042Z,29.00
2018-08-19T15:48:13.562Z,29.40
2018-08-19T15:50:45.734Z,29.30
2018-08-19T15:53:17.445Z,29.20
2018-08-19T15:55:46.223Z,29.20
2018-08-19T15:58:14.470Z,29.30
2018-08-19T16:00:45.902Z,29.50
2018-08-19T16:03:17.020Z,29.60
2018-08-19T16:05:46.877Z,29.20
2018-08-19T16:08:17.503Z,29.20
2018-08-19T16:10:46.089Z,29.60
2018-08-19T16:13:14.933Z,30.00
2018-08-19T16:15:44.331Z,29.70
2018-08-19T16:18:12.651Z,30.20
2018-08-19T16:20:49.025Z,30.80
2018-08-19T16:23:17.243Z,30.10
2018-08-19T16:25:45.760Z,30.30
2018-08-19T16:28:14.473Z,30.10
2018-08-19T16:30:43.263Z,30.60
2018-08-19T16:33:12.083Z,30.60
2018-08-19T16:35:40.667Z,31.10
2018-08-19T16:38:09.220Z,30.80
2018-08-19T16:40:38.632Z,30.90
2018-08-19T16:43:07.910Z,31.00
2018-08-19T16:45:37.603Z,31.00
2018-08-19T16:48:07.113Z,31.80
2018-08-19T16:50:37.074Z,31.80
2018-08-19T16:53:06.486Z,31.40
2018-08-19T16:55:35.651Z,31.70
2018-08-19T16:58:04.863Z,31.60
2018-08-19T17:00:33.969Z,32.20
2018-08-19T17:03:14.187Z,32.00
2018-08-19T17:05:42.714Z,32.30
2018-08-19T17:08:11.214Z,32.60
2018-08-19T17:10:39.984Z,32.60
2018-08-19T17:13:10.165Z,33.20
2018-08-19T17:15:39.333Z,32.90
2018-08-19T17:18:10.353Z,33.20
2018-08-19T17:20:43.379Z,33.50
2018-08-19T17:23:13.725Z,33.70
2018-08-19T17:25:44.784Z,33.80
2018-08-19T17:28:19.740Z,34.20
2018-08-19T17:30:49.732Z,34.20
2018-08-19T17:33:17.907Z,34.50
2018-08-19T17:35:49.860Z,34.30
2018-08-19T17:38:17.813Z,34.30
2018-08-19T17:40:45.929Z,35.00
2018-08-19T17:43:14.310Z,34.90
2018-08-19T17:45:42.914Z,35.30
2018-08-19T17:48:10.846Z,35.50
2018-08-19T17:50:39.573Z,35.60
2018-08-19T17:53:08.120Z,36.00
2018-08-19T17:55:38.700Z,36.20
2018-08-19T17:58:07.330Z,36.40
2018-08-19T18:00:36.139Z,36.50
2018-08-19T18:03:05.758Z,36.80
2018-08-19T18:05:35.253Z,37.00
2018-08-19T18:08:04.489Z,37.20
2018-08-19T18:10:32.865Z,37.20
2018-08-19T18:13:00.960Z,37.40
2018-08-19T18:15:29.103Z,37.60
2018-08-19T18:18:02.552Z,37.90
2018-08-19T18:20:34.995Z,37.90
2018-08-19T18:23:04.283Z,37.90
2018-08-19T18:25:33.579Z,38.20
2018-08-19T18:28:10.889Z,38.30
2018-08-19T18:30:38.726Z,38.60
2018-08-19T18:33:07.158Z,38.80
2018-08-19T18:35:37.262Z,39.30
2018-08-19T18:38:11.353Z,39.30
2018-08-19T18:40:39.292Z,39.30
2018-08-19T18:43:08.026Z,39.60
2018-08-19T18:45:37.438Z,39.80
2018-08-19T18:48:06.608Z,39.80
2018-08-19T18:50:36.764Z,40.10
2018-08-19T18:53:05.331Z,40.60
2018-08-19T18:55:35.749Z,40.80
2018-08-19T18:58:07.597Z,41.20
2018-08-19T19:00:40.278Z,41.30
2018-08-19T19:03:09.002Z,41.20
2018-08-19T19:05:42.183Z,41.60
2018-08-19T19:08:15.500Z,41.70
2018-08-19T19:10:54.706Z,41.90
2018-08-19T19:13:23.724Z,42.40
2018-08-19T19:15:51.783Z,42.50
2018-08-19T19:18:19.817Z,42.60
2018-08-19T19:20:52.130Z,42.60
2018-08-19T19:23:24.853Z,42.80
2018-08-19T19:25:52.810Z,43.50
2018-08-19T19:28:20.824Z,42.70
2018-08-19T19:30:54.292Z,43.20
2018-08-19T19:33:22.239Z,44.10
2018-08-19T19:35:50.254Z,43.90
2018-08-19T19:41:14.826Z,44.40
2018-08-19T19:43:42.807Z,44.70
2018-08-19T19:46:10.822Z,45.50
2018-08-19T19:48:38.941Z,45.30
2018-08-19T19:51:07.983Z,45.70
2018-08-19T19:53:37.236Z,45.70
2018-08-19T19:56:14.058Z,46.00
2018-08-19T19:58:44.288Z,46.20
2018-08-19T20:01:12.712Z,46.50
2018-08-19T20:03:46.156Z,46.20
2018-08-19T20:06:14.212Z,46.70
2018-08-19T20:08:42.269Z,46.90
2018-08-19T20:11:15.976Z,47.30
2018-08-19T20:13:44.430Z,47.70
2018-08-19T20:16:15.407Z,48.00
2018-08-19T20:18:43.294Z,48.10
2018-08-19T20:21:16.538Z,48.40
2018-08-19T20:23:44.569Z,48.40
2018-08-19T20:26:12.590Z,48.60
2018-08-19T20:28:40.895Z,48.80
2018-08-19T20:31:12.426Z,49.10
2018-08-19T20:33:40.735Z,49.30
2018-08-19T20:39:08.308Z,49.40
2018-08-19T20:41:38.513Z,49.90
2018-08-19T20:44:09.394Z,50.00
2018-08-19T20:46:42.845Z,50.40
2018-08-19T20:49:11.697Z,50.80
2018-08-19T20:51:40.845Z,51.00
2018-08-19T20:54:10.157Z,51.10
2018-08-19T20:56:38.366Z,51.50
2018-08-19T20:59:07.788Z,51.50
2018-08-19T21:14:53.077Z,51.70
2018-08-19T21:17:20.505Z,51.80
2018-08-19T21:19:47.954Z,51.90
2018-08-19T21:22:15.416Z,52.40
2018-08-19T21:24:43.030Z,52.70
2018-08-19T21:27:10.842Z,53.20
2018-08-19T21:29:38.599Z,53.40
2018-08-19T21:32:06.758Z,53.40
2018-08-19T21:34:34.833Z,53.60
2018-08-19T21:37:02.618Z,53.80
2018-08-19T21:39:30.128Z,54.20
2018-08-19T21:41:57.651Z,54.20
2018-08-19T21:44:25.271Z,54.30
2018-08-19T21:47:01.997Z,54.40
2018-08-19T21:49:29.589Z,54.50
2018-08-19T21:51:57.086Z,54.80
2018-08-19T21:54:24.591Z,55.10
2018-08-19T21:56:52.105Z,55.50
2018-08-19T21:59:22.121Z,55.60
2018-08-19T22:01:58.570Z,56.00
2018-08-19T22:04:26.525Z,56.40
2018-08-19T22:06:53.969Z,56.30
2018-08-19T22:09:36.286Z,56.70
2018-08-19T22:12:05.709Z,56.90
2018-08-19T22:14:33.839Z,57.10
2018-08-19T22:17:07.629Z,57.60
2018-08-19T22:19:35.746Z,56.90
2018-08-19T22:22:03.896Z,56.90
2018-08-19T22:24:32.038Z,57.20
2018-08-19T22:27:16.215Z,57.30
2018-08-19T22:29:43.965Z,57.60
2018-08-19T22:32:11.743Z,57.90
2018-08-19T22:34:39.354Z,58.20
2018-08-19T22:37:07.131Z,58.20
2018-08-19T22:39:34.900Z,58.20
2018-08-19T22:42:03.016Z,58.30
2018-08-19T22:44:30.531Z,58.30
2018-08-19T22:47:03.717Z,58.50
2018-08-19T22:49:31.198Z,58.00
2018-08-19T22:52:30.988Z,58.10
2018-08-19T22:54:59.505Z,57.90
2018-08-19T22:57:27.848Z,58.10
2018-08-19T22:59:55.295Z,58.10
2018-08-19T23:02:23.316Z,58.10
2018-08-19T23:04:50.764Z,58.00
2018-08-19T23:07:18.377Z,58.30
2018-08-19T23:09:45.938Z,58.80
2018-08-19T23:12:13.446Z,59.00
2018-08-19T23:14:52.788Z,59.30
2018-08-19T23:17:20.293Z,59.50
2018-08-19T23:19:48.601Z,60.10
2018-08-19T23:22:16.104Z,60.40
2018-08-19T23:24:43.571Z,60.80
2018-08-19T23:27:11.237Z,60.80
2018-08-19T23:29:38.883Z,60.60
2018-08-19T23:32:06.619Z,60.60
2018-08-19T23:34:34.355Z,60.90
2018-08-19T23:37:01.809Z,61.30
2018-08-19T23:39:29.328Z,61.00
2018-08-19T23:44:34.192Z,61.30
2018-08-19T23:47:02.180Z,61.20
2018-08-19T23:49:30.127Z,61.30
2018-08-19T23:51:57.721Z,61.40
2018-08-19T23:54:25.217Z,61.70
2018-08-19T23:56:52.777Z,61.80
2018-08-19T23:59:25.833Z,62.10
